createdAt,value
2023-02-03T00:02:24.000Z,14.58
2023-02-03T00:07:25.000Z,13.72
2023-02-03T00:12:24.000Z,14.15
2023-02-03T00:17:24.000Z,13.74
2023-02-03T00:22:24.000Z,13.85
2023-02-03T00:27:24.000Z,13.9
2023-02-03T00:32:25.000Z,13.6
2023-02-03T00:37:24.000Z,13.8
2023-02-03T00:42:24.000Z,13.84
2023-02-03T00:47:25.000Z,14.03
2023-02-03T00:52:24.000Z,13.62
2023-02-03T00:57:25.000Z,13.75
2023-02-03T01:02:24.000Z,13.95
2023-02-03T01:07:25.000Z,13.97
2023-02-03T01:12:25.000Z,14.48
2023-02-03T01:17:24.000Z,14.26
2023-02-03T01:22:25.000Z,13.84
2023-02-03T01:27:24.000Z,13.95
2023-02-03T01:32:25.000Z,14.1
2023-02-03T01:37:24.000Z,13.59
2023-02-03T01:42:25.000Z,13.9
2023-02-03T01:47:24.000Z,14.19
2023-02-03T01:52:24.000Z,14.42
2023-02-03T01:57:24.000Z,14.1
2023-02-03T02:02:24.000Z,14.26
2023-02-03T02:07:25.000Z,14.52
2023-02-03T02:12:24.000Z,14.72
2023-02-03T02:17:25.000Z,14.53
2023-02-03T02:22:24.000Z,14.9
2023-02-03T02:27:25.000Z,14.26
2023-02-03T02:32:24.000Z,14.29
2023-02-03T02:37:24.000Z,13.89
2023-02-03T02:42:24.000Z,14.26
2023-02-03T02:47:25.000Z,14.27
2023-02-03T02:52:24.000Z,14.36
2023-02-03T02:57:25.000Z,15.2
2023-02-03T03:02:24.000Z,14.45
2023-02-03T03:07:25.000Z,14.91
2023-02-03T03:12:24.000Z,15.21
2023-02-03T03:17:24.000Z,15.29
2023-02-03T03:22:24.000Z,15.38
2023-02-03T03:27:25.000Z,14.79
2023-02-03T03:32:25.000Z,15.33
2023-02-03T03:37:24.000Z,15.21
2023-02-03T03:42:25.000Z,14.81
2023-02-03T03:47:24.000Z,15.21
2023-02-03T03:52:24.000Z,15.59
2023-02-03T03:57:25.000Z,15.78
2023-02-03T04:02:25.000Z,15.6
2023-02-03T04:07:24.000Z,15.95
2023-02-03T04:12:25.000Z,15.86
2023-02-03T04:17:24.000Z,16.18
2023-02-03T04:22:25.000Z,16.58
2023-02-03T04:27:24.000Z,16.18
2023-02-03T04:32:24.000Z,16.33
2023-02-03T04:37:24.000Z,15.94
2023-02-03T04:47:24.000Z,16.01
2023-02-03T04:52:24.000Z,16.57
2023-02-03T04:57:24.000Z,16.38
2023-02-03T05:02:24.000Z,16.36
2023-02-03T05:07:24.000Z,17.07
2023-02-03T05:12:24.000Z,17.02
2023-02-03T05:17:24.000Z,16.84
2023-02-03T05:22:24.000Z,16.59
2023-02-03T05:27:24.000Z,16.29
2023-02-03T05:37:24.000Z,16.64
2023-02-03T05:42:25.000Z,15.98
2023-02-03T05:47:24.000Z,16.3
2023-02-03T05:52:24.000Z,16.77
2023-02-03T05:57:24.000Z,17.23
2023-02-03T06:02:25.000Z,16.62
2023-02-03T06:07:24.000Z,16.48
2023-02-03T06:12:24.000Z,16.51
2023-02-03T06:17:25.000Z,17.45
2023-02-03T06:22:24.000Z,17.06
2023-02-03T06:27:24.000Z,16.74
2023-02-03T06:32:24.000Z,17.15
2023-02-03T06:37:24.000Z,17.23
2023-02-03T06:42:24.000Z,17.15
2023-02-03T06:47:25.000Z,17.76
2023-02-03T06:52:24.000Z,17.18
2023-02-03T06:57:25.000Z,17.18
2023-02-03T07:02:24.000Z,17.62
2023-02-03T07:07:25.000Z,17.73
2023-02-03T07:12:24.000Z,17.4
2023-02-03T07:17:25.000Z,17.24
2023-02-03T07:22:24.000Z,17.32
2023-02-03T07:27:24.000Z,17.78
2023-02-03T07:32:24.000Z,17.6
2023-02-03T07:37:24.000Z,17.52
2023-02-03T07:42:24.000Z,17.28
2023-02-03T07:47:24.000Z,17.63
2023-02-03T07:52:25.000Z,17.39
2023-02-03T07:57:24.000Z,17.34
2023-02-03T08:02:25.000Z,17.7
2023-02-03T08:07:24.000Z,17.3
2023-02-03T08:12:24.000Z,16.6
2023-02-03T08:17:25.000Z,16.54
2023-02-03T08:22:24.000Z,17.24
2023-02-03T08:27:24.000Z,16.99
2023-02-03T08:32:24.000Z,16.84
2023-02-03T08:37:24.000Z,17.11
2023-02-03T08:42:24.000Z,16.35
2023-02-03T08:47:24.000Z,16.67
2023-02-03T08:52:25.000Z,17.27
2023-02-03T08:57:24.000Z,16.02
2023-02-03T09:02:25.000Z,16.93
2023-02-03T09:07:24.000Z,16.8
2023-02-03T09:12:25.000Z,17.44
2023-02-03T09:17:24.000Z,16.86
2023-02-03T09:22:25.000Z,16.56
2023-02-03T09:27:24.000Z,17.64
2023-02-03T09:32:25.000Z,16.96
2023-02-03T09:37:24.000Z,16.82
2023-02-03T09:42:25.000Z,16.43
2023-02-03T09:52:24.000Z,15.88
2023-02-03T09:57:25.000Z,15.87
2023-02-03T10:02:25.000Z,15.78
2023-02-03T10:07:25.000Z,15.65
2023-02-03T10:12:25.000Z,14.83
2023-02-03T10:17:24.000Z,15.09
2023-02-03T10:22:24.000Z,14.47
2023-02-03T10:27:25.000Z,14.58
2023-02-03T10:32:24.000Z,14.47
2023-02-03T10:37:25.000Z,14.53
2023-02-03T10:42:25.000Z,14.08
2023-02-03T10:47:24.000Z,13.85
2023-02-03T10:52:24.000Z,13.88
2023-02-03T10:57:25.000Z,12.42
2023-02-03T11:02:24.000Z,12.99
2023-02-03T11:07:24.000Z,12.56
2023-02-03T11:12:25.000Z,13.07
2023-02-03T11:17:24.000Z,12.74
2023-02-03T11:22:25.000Z,12.84
2023-02-03T11:27:24.000Z,12.43
2023-02-03T11:32:24.000Z,12.25
2023-02-03T11:37:24.000Z,12.88
2023-02-03T11:42:24.000Z,12.62
2023-02-03T11:47:24.000Z,12.58
2023-02-03T11:52:25.000Z,13.67
2023-02-03T11:57:24.000Z,13.78
2023-02-03T12:02:24.000Z,13.62
2023-02-03T12:07:24.000Z,13.64
2023-02-03T12:12:24.000Z,14.19
2023-02-03T12:22:25.000Z,13.23
2023-02-03T12:27:24.000Z,13.79
2023-02-03T12:32:24.000Z,13.57
2023-02-03T12:37:24.000Z,14.02
2023-02-03T12:42:24.000Z,13.75
2023-02-03T12:47:24.000Z,13.79
2023-02-03T12:52:24.000Z,13.33
2023-02-03T12:57:24.000Z,13.41
2023-02-03T13:02:25.000Z,13.54
2023-02-03T13:07:25.000Z,14.13
2023-02-03T13:12:24.000Z,14.06
2023-02-03T13:17:25.000Z,13.3
2023-02-03T13:22:24.000Z,12.87
2023-02-03T13:27:24.000Z,12.05
2023-02-03T13:32:24.000Z,11.93
2023-02-03T13:42:24.000Z,12.25
2023-02-03T13:47:24.000Z,12.44
2023-02-03T13:52:25.000Z,12.58
2023-02-03T13:57:24.000Z,11.96
2023-02-03T14:02:25.000Z,12.25
2023-02-03T14:07:24.000Z,12.14
2023-02-03T14:12:25.000Z,12.31
2023-02-03T14:17:24.000Z,12.13
2023-02-03T14:22:25.000Z,12.54
2023-02-03T14:27:24.000Z,11.81
2023-02-03T14:32:24.000Z,11.9
2023-02-03T14:37:25.000Z,12.27
2023-02-03T14:42:24.000Z,12.01
2023-02-03T14:47:24.000Z,13.04
2023-02-03T14:52:24.000Z,12.94
2023-02-03T14:57:25.000Z,12.8
2023-02-03T15:02:25.000Z,12.57
2023-02-03T15:07:25.000Z,12.97
2023-02-03T15:12:25.000Z,13.24
2023-02-03T15:17:24.000Z,13.61
2023-02-03T15:22:25.000Z,12.91
2023-02-03T15:27:24.000Z,13.11
2023-02-03T15:37:24.000Z,13.02
2023-02-03T15:42:25.000Z,12.99
2023-02-03T15:47:24.000Z,13.65
2023-02-03T15:52:24.000Z,13.25
2023-02-03T15:57:24.000Z,12.3
2023-02-03T16:02:25.000Z,12.49
2023-02-03T16:07:24.000Z,12.3
2023-02-03T16:12:24.000Z,12.56
2023-02-03T16:17:25.000Z,11.9
2023-02-03T16:22:25.000Z,12.59
2023-02-03T16:27:24.000Z,12.11
2023-02-03T16:32:24.000Z,12.21
2023-02-03T16:37:25.000Z,12.03
2023-02-03T16:42:24.000Z,12.15
2023-02-03T16:47:24.000Z,13.21
2023-02-03T16:52:24.000Z,12.18
2023-02-03T16:57:24.000Z,12.07
2023-02-03T17:02:25.000Z,12.61
2023-02-03T17:07:24.000Z,12.61
2023-02-03T17:12:24.000Z,12.11
2023-02-03T17:17:25.000Z,12.77
2023-02-03T17:22:24.000Z,12.76
2023-02-03T17:27:24.000Z,13.34
2023-02-03T17:32:25.000Z,13.15
2023-02-03T17:37:24.000Z,13.65
2023-02-03T17:52:25.000Z,12.88
2023-02-03T18:02:25.000Z,13.83
2023-02-03T18:07:24.000Z,13.76
2023-02-03T18:12:24.000Z,13.44
2023-02-03T18:17:25.000Z,13.28
2023-02-03T18:22:24.000Z,13.85
2023-02-03T18:27:25.000Z,13.59
2023-02-03T18:32:24.000Z,12.82
2023-02-03T18:37:24.000Z,13.02
2023-02-03T18:42:24.000Z,12.83
2023-02-03T18:47:25.000Z,12.86
2023-02-03T18:52:24.000Z,13.15
2023-02-03T18:57:24.000Z,13.21
2023-02-03T19:02:24.000Z,13.01
2023-02-03T19:07:25.000Z,13.26
2023-02-03T19:12:24.000Z,13.04
2023-02-03T19:17:24.000Z,12.71
2023-02-03T19:22:24.000Z,13.23
2023-02-03T19:27:25.000Z,12.92
2023-02-03T19:32:24.000Z,12.94
2023-02-03T19:37:24.000Z,12.85
2023-02-03T19:42:24.000Z,13.74
2023-02-03T19:47:24.000Z,13.55
2023-02-03T19:52:24.000Z,14.04
2023-02-03T19:57:25.000Z,14.07
2023-02-03T20:02:24.000Z,14.43
2023-02-03T20:07:25.000Z,14.48
2023-02-03T20:12:24.000Z,13.83
2023-02-03T20:17:24.000Z,12.61
2023-02-03T20:22:24.000Z,12.19
2023-02-03T20:27:24.000Z,12.24
2023-02-03T20:32:25.000Z,12.17
2023-02-03T20:37:24.000Z,12.65
2023-02-03T20:42:25.000Z,13.12
2023-02-03T20:47:24.000Z,13.07
2023-02-03T20:52:25.000Z,12.87
2023-02-03T20:57:24.000Z,12.68
2023-02-03T21:02:25.000Z,12.48
2023-02-03T21:07:24.000Z,12.14
2023-02-03T21:12:25.000Z,12.31
2023-02-03T21:17:24.000Z,12.53
2023-02-03T21:22:24.000Z,13.25
2023-02-03T21:27:24.000Z,12.46
2023-02-03T21:32:24.000Z,12.7
2023-02-03T21:37:24.000Z,13.18
2023-02-03T21:47:25.000Z,13.26
2023-02-03T21:52:24.000Z,14.16
2023-02-03T21:57:24.000Z,13.85
2023-02-03T22:02:25.000Z,13.33
2023-02-03T22:07:24.000Z,13.53
2023-02-03T22:12:24.000Z,13.29
2023-02-03T22:17:25.000Z,13.88
2023-02-03T22:22:25.000Z,13.21
2023-02-03T22:27:24.000Z,13.24
2023-02-03T22:32:24.000Z,12.99
2023-02-03T22:37:25.000Z,12.78
2023-02-03T22:42:24.000Z,12.64
2023-02-03T22:52:24.000Z,12.7
2023-02-03T22:57:24.000Z,12.4
2023-02-03T23:02:24.000Z,12.12
2023-02-03T23:07:24.000Z,11.93
2023-02-03T23:12:24.000Z,11.91
2023-02-03T23:17:25.000Z,11.68
2023-02-03T23:22:24.000Z,11.56
2023-02-03T23:27:24.000Z,11.9
2023-02-03T23:37:24.000Z,11.07
2023-02-03T23:42:25.000Z,11.31
2023-02-03T23:47:24.000Z,12.69
2023-02-03T23:52:25.000Z,11.44
2023-02-03T23:57:24.000Z,10.96
